sensor_id;sensor_type;location;lat;lon;timestamp;P1;durP1;ratioP1;P2;durP2;ratioP2
71125;SDS011;58785;55.566;38.058;2022-12-29T00:02:07;5.00;;;1.60;;
71125;SDS011;58785;55.566;38.058;2022-12-29T00:04:33;4.27;;;1.40;;
71125;SDS011;58785;55.566;38.058;2022-12-29T00:06:59;4.90;;;1.10;;
71125;SDS011;58785;55.566;38.058;2022-12-29T00:09:25;5.25;;;1.10;;
71125;SDS011;58785;55.566;38.058;2022-12-29T00:11:51;7.03;;;1.87;;
71125;SDS011;58785;55.566;38.058;2022-12-29T00:14:16;8.27;;;2.05;;
71125;SDS011;58785;55.566;38.058;2022-12-29T00:17:01;6.57;;;1.58;;
71125;SDS011;58785;55.566;38.058;2022-12-29T00:19:26;5.17;;;1.47;;
71125;SDS011;58785;55.566;38.058;2022-12-29T00:22:11;4.97;;;1.27;;
71125;SDS011;58785;55.566;38.058;2022-12-29T00:24:57;5.65;;;1.17;;
71125;SDS011;58785;55.566;38.058;2022-12-29T00:27:41;4.57;;;1.13;;
71125;SDS011;58785;55.566;38.058;2022-12-29T00:30:25;7.67;;;1.50;;
71125;SDS011;58785;55.566;38.058;2022-12-29T00:35:56;6.03;;;1.05;;
71125;SDS011;58785;55.566;38.058;2022-12-29T00:38:25;6.05;;;1.60;;
71125;SDS011;58785;55.566;38.058;2022-12-29T00:41:10;5.93;;;1.65;;
71125;SDS011;58785;55.566;38.058;2022-12-29T00:43:54;8.77;;;1.67;;
71125;SDS011;58785;55.566;38.058;2022-12-29T00:46:33;5.20;;;1.63;;
71125;SDS011;58785;55.566;38.058;2022-12-29T00:48:59;6.88;;;1.50;;
71125;SDS011;58785;55.566;38.058;2022-12-29T00:51:44;7.22;;;1.73;;
71125;SDS011;58785;55.566;38.058;2022-12-29T00:54:10;5.35;;;0.98;;
71125;SDS011;58785;55.566;38.058;2022-12-29T00:56:37;5.50;;;0.90;;
71125;SDS011;58785;55.566;38.058;2022-12-29T00:59:03;3.92;;;0.80;;
71125;SDS011;58785;55.566;38.058;2022-12-29T01:01:30;6.28;;;1.20;;
71125;SDS011;58785;55.566;38.058;2022-12-29T01:03:56;6.73;;;1.60;;
71125;SDS011;58785;55.566;38.058;2022-12-29T01:06:22;6.53;;;0.93;;
71125;SDS011;58785;55.566;38.058;2022-12-29T01:08:48;3.77;;;1.07;;
71125;SDS011;58785;55.566;38.058;2022-12-29T01:11:39;7.20;;;0.98;;
71125;SDS011;58785;55.566;38.058;2022-12-29T01:14:05;4.00;;;0.85;;
71125;SDS011;58785;55.566;38.058;2022-12-29T01:16:32;4.28;;;0.80;;
71125;SDS011;58785;55.566;38.058;2022-12-29T01:18:58;4.25;;;0.90;;
71125;SDS011;58785;55.566;38.058;2022-12-29T01:21:24;2.73;;;0.50;;
71125;SDS011;58785;55.566;38.058;2022-12-29T01:23:50;4.43;;;0.98;;
71125;SDS011;58785;55.566;38.058;2022-12-29T01:26:16;3.37;;;0.60;;
71125;SDS011;58785;55.566;38.058;2022-12-29T01:28:42;2.78;;;0.50;;
71125;SDS011;58785;55.566;38.058;2022-12-29T01:31:09;4.88;;;0.55;;
71125;SDS011;58785;55.566;38.058;2022-12-29T01:33:35;5.25;;;0.60;;
71125;SDS011;58785;55.566;38.058;2022-12-29T01:36:04;5.57;;;1.00;;
71125;SDS011;58785;55.566;38.058;2022-12-29T01:38:35;3.67;;;0.70;;
71125;SDS011;58785;55.566;38.058;2022-12-29T01:41:02;7.20;;;1.05;;
71125;SDS011;58785;55.566;38.058;2022-12-29T01:43:42;6.45;;;0.90;;
71125;SDS011;58785;55.566;38.058;2022-12-29T01:51:53;5.50;;;1.10;;
71125;SDS011;58785;55.566;38.058;2022-12-29T01:54:23;5.15;;;1.00;;
71125;SDS011;58785;55.566;38.058;2022-12-29T01:56:53;6.00;;;1.48;;
71125;SDS011;58785;55.566;38.058;2022-12-29T01:59:24;6.07;;;1.30;;
71125;SDS011;58785;55.566;38.058;2022-12-29T02:01:56;6.50;;;1.08;;
71125;SDS011;58785;55.566;38.058;2022-12-29T02:04:23;5.25;;;0.80;;
71125;SDS011;58785;55.566;38.058;2022-12-29T02:07:00;6.15;;;1.25;;
71125;SDS011;58785;55.566;38.058;2022-12-29T02:09:33;4.00;;;0.75;;
71125;SDS011;58785;55.566;38.058;2022-12-29T02:11:59;5.20;;;0.73;;
71125;SDS011;58785;55.566;38.058;2022-12-29T02:14:26;5.35;;;1.15;;
71125;SDS011;58785;55.566;38.058;2022-12-29T02:22:34;3.60;;;0.90;;
71125;SDS011;58785;55.566;38.058;2022-12-29T02:27:54;8.05;;;1.30;;
71125;SDS011;58785;55.566;38.058;2022-12-29T02:41:23;6.53;;;0.80;;
71125;SDS011;58785;55.566;38.058;2022-12-29T02:43:56;4.03;;;0.77;;
71125;SDS011;58785;55.566;38.058;2022-12-29T02:51:52;4.45;;;1.08;;
71125;SDS011;58785;55.566;38.058;2022-12-29T02:54:23;4.30;;;0.63;;
71125;SDS011;58785;55.566;38.058;2022-12-29T02:59:48;3.13;;;0.60;;
71125;SDS011;58785;55.566;38.058;2022-12-29T03:07:52;3.97;;;0.95;;
71125;SDS011;58785;55.566;38.058;2022-12-29T03:13:43;6.68;;;1.08;;
71125;SDS011;58785;55.566;38.058;2022-12-29T03:19:07;5.30;;;1.00;;
71125;SDS011;58785;55.566;38.058;2022-12-29T03:22:08;6.22;;;1.42;;
71125;SDS011;58785;55.566;38.058;2022-12-29T03:25:01;7.20;;;1.50;;
71125;SDS011;58785;55.566;38.058;2022-12-29T03:27:32;3.80;;;0.70;;
71125;SDS011;58785;55.566;38.058;2022-12-29T03:30:03;12.23;;;1.17;;
71125;SDS011;58785;55.566;38.058;2022-12-29T03:32:35;5.85;;;1.33;;
71125;SDS011;58785;55.566;38.058;2022-12-29T03:35:05;6.03;;;1.25;;
71125;SDS011;58785;55.566;38.058;2022-12-29T03:37:37;6.27;;;1.47;;
71125;SDS011;58785;55.566;38.058;2022-12-29T03:40:08;6.30;;;1.35;;
71125;SDS011;58785;55.566;38.058;2022-12-29T03:42:35;7.25;;;1.17;;
71125;SDS011;58785;55.566;38.058;2022-12-29T03:45:02;5.95;;;1.38;;
71125;SDS011;58785;55.566;38.058;2022-12-29T03:47:30;10.13;;;1.30;;
71125;SDS011;58785;55.566;38.058;2022-12-29T03:49:56;5.17;;;1.23;;
71125;SDS011;58785;55.566;38.058;2022-12-29T03:52:21;8.73;;;1.47;;
71125;SDS011;58785;55.566;38.058;2022-12-29T03:54:47;4.97;;;1.23;;
71125;SDS011;58785;55.566;38.058;2022-12-29T03:57:13;4.70;;;1.10;;
71125;SDS011;58785;55.566;38.058;2022-12-29T03:59:38;7.47;;;1.33;;
71125;SDS011;58785;55.566;38.058;2022-12-29T04:02:04;9.83;;;1.90;;
71125;SDS011;58785;55.566;38.058;2022-12-29T04:04:29;4.55;;;1.33;;
71125;SDS011;58785;55.566;38.058;2022-12-29T04:06:55;5.13;;;1.20;;
71125;SDS011;58785;55.566;38.058;2022-12-29T04:09:21;5.55;;;1.02;;
71125;SDS011;58785;55.566;38.058;2022-12-29T04:11:46;7.73;;;1.23;;
71125;SDS011;58785;55.566;38.058;2022-12-29T04:14:12;7.97;;;1.67;;
71125;SDS011;58785;55.566;38.058;2022-12-29T04:16:38;5.57;;;1.57;;
71125;SDS011;58785;55.566;38.058;2022-12-29T04:19:07;4.53;;;1.23;;
71125;SDS011;58785;55.566;38.058;2022-12-29T04:21:33;8.10;;;1.60;;
71125;SDS011;58785;55.566;38.058;2022-12-29T04:23:59;6.75;;;1.13;;
71125;SDS011;58785;55.566;38.058;2022-12-29T04:26:25;6.05;;;1.33;;
71125;SDS011;58785;55.566;38.058;2022-12-29T04:28:50;6.10;;;1.73;;
71125;SDS011;58785;55.566;38.058;2022-12-29T04:31:16;5.03;;;1.20;;
71125;SDS011;58785;55.566;38.058;2022-12-29T04:33:42;5.00;;;1.27;;
71125;SDS011;58785;55.566;38.058;2022-12-29T04:36:07;8.93;;;1.67;;
71125;SDS011;58785;55.566;38.058;2022-12-29T04:38:33;6.95;;;1.42;;
71125;SDS011;58785;55.566;38.058;2022-12-29T04:40:59;7.90;;;2.00;;
71125;SDS011;58785;55.566;38.058;2022-12-29T04:43:25;6.40;;;1.52;;
71125;SDS011;58785;55.566;38.058;2022-12-29T04:45:51;8.38;;;1.90;;
71125;SDS011;58785;55.566;38.058;2022-12-29T04:48:17;6.13;;;1.77;;
71125;SDS011;58785;55.566;38.058;2022-12-29T04:50:43;6.73;;;1.70;;
71125;SDS011;58785;55.566;38.058;2022-12-29T04:53:08;9.80;;;1.73;;
71125;SDS011;58785;55.566;38.058;2022-12-29T04:55:34;7.13;;;1.95;;
71125;SDS011;58785;55.566;38.058;2022-12-29T04:58:00;6.50;;;1.60;;
71125;SDS011;58785;55.566;38.058;2022-12-29T05:00:26;5.75;;;1.55;;
71125;SDS011;58785;55.566;38.058;2022-12-29T05:02:51;7.63;;;1.80;;
71125;SDS011;58785;55.566;38.058;2022-12-29T05:05:17;9.18;;;2.03;;
71125;SDS011;58785;55.566;38.058;2022-12-29T05:07:44;7.45;;;1.60;;
71125;SDS011;58785;55.566;38.058;2022-12-29T05:10:10;8.73;;;1.60;;
71125;SDS011;58785;55.566;38.058;2022-12-29T05:12:36;10.48;;;2.45;;
71125;SDS011;58785;55.566;38.058;2022-12-29T05:15:04;5.18;;;1.50;;
71125;SDS011;58785;55.566;38.058;2022-12-29T05:17:31;7.15;;;2.05;;
71125;SDS011;58785;55.566;38.058;2022-12-29T05:19:57;6.57;;;1.47;;
71125;SDS011;58785;55.566;38.058;2022-12-29T05:22:23;6.55;;;1.80;;
71125;SDS011;58785;55.566;38.058;2022-12-29T05:24:48;7.57;;;1.98;;
71125;SDS011;58785;55.566;38.058;2022-12-29T05:27:14;8.10;;;1.83;;
71125;SDS011;58785;55.566;38.058;2022-12-29T05:29:40;5.50;;;1.63;;
71125;SDS011;58785;55.566;38.058;2022-12-29T05:32:05;8.77;;;1.92;;
71125;SDS011;58785;55.566;38.058;2022-12-29T05:34:31;6.82;;;1.60;;
71125;SDS011;58785;55.566;38.058;2022-12-29T05:36:57;9.00;;;2.00;;
71125;SDS011;58785;55.566;38.058;2022-12-29T05:39:22;9.47;;;2.57;;
71125;SDS011;58785;55.566;38.058;2022-12-29T05:41:48;10.18;;;3.22;;
71125;SDS011;58785;55.566;38.058;2022-12-29T05:44:14;10.63;;;2.97;;
71125;SDS011;58785;55.566;38.058;2022-12-29T05:46:39;11.50;;;2.50;;
71125;SDS011;58785;55.566;38.058;2022-12-29T05:49:05;11.40;;;2.83;;
71125;SDS011;58785;55.566;38.058;2022-12-29T05:51:31;11.80;;;3.27;;
71125;SDS011;58785;55.566;38.058;2022-12-29T05:53:57;10.85;;;2.50;;
71125;SDS011;58785;55.566;38.058;2022-12-29T05:56:23;10.73;;;3.10;;
71125;SDS011;58785;55.566;38.058;2022-12-29T05:58:49;8.70;;;3.33;;
71125;SDS011;58785;55.566;38.058;2022-12-29T06:01:14;10.13;;;2.70;;
71125;SDS011;58785;55.566;38.058;2022-12-29T06:03:40;7.63;;;2.70;;
71125;SDS011;58785;55.566;38.058;2022-12-29T06:06:06;8.02;;;2.65;;
71125;SDS011;58785;55.566;38.058;2022-12-29T06:08:32;8.07;;;2.47;;
71125;SDS011;58785;55.566;38.058;2022-12-29T06:10:58;7.53;;;2.50;;
71125;SDS011;58785;55.566;38.058;2022-12-29T06:13:23;7.65;;;2.05;;
71125;SDS011;58785;55.566;38.058;2022-12-29T06:15:49;7.30;;;2.43;;
71125;SDS011;58785;55.566;38.058;2022-12-29T06:18:15;13.18;;;2.72;;
71125;SDS011;58785;55.566;38.058;2022-12-29T06:20:41;11.98;;;3.72;;
71125;SDS011;58785;55.566;38.058;2022-12-29T06:23:07;8.73;;;3.23;;
71125;SDS011;58785;55.566;38.058;2022-12-29T06:25:33;12.57;;;2.78;;
71125;SDS011;58785;55.566;38.058;2022-12-29T06:27:59;8.57;;;2.35;;
71125;SDS011;58785;55.566;38.058;2022-12-29T06:30:25;7.30;;;2.63;;
71125;SDS011;58785;55.566;38.058;2022-12-29T06:32:51;13.07;;;2.47;;
71125;SDS011;58785;55.566;38.058;2022-12-29T06:35:16;5.60;;;1.95;;
71125;SDS011;58785;55.566;38.058;2022-12-29T06:37:42;11.93;;;2.90;;
71125;SDS011;58785;55.566;38.058;2022-12-29T06:40:08;11.32;;;2.83;;
71125;SDS011;58785;55.566;38.058;2022-12-29T06:42:34;8.73;;;2.67;;
71125;SDS011;58785;55.566;38.058;2022-12-29T06:45:01;9.47;;;2.90;;
71125;SDS011;58785;55.566;38.058;2022-12-29T06:47:29;15.30;;;3.58;;
71125;SDS011;58785;55.566;38.058;2022-12-29T06:49:54;12.98;;;3.03;;
71125;SDS011;58785;55.566;38.058;2022-12-29T06:52:20;9.53;;;2.47;;
71125;SDS011;58785;55.566;38.058;2022-12-29T06:54:46;13.85;;;3.70;;
71125;SDS011;58785;55.566;38.058;2022-12-29T06:57:11;15.97;;;3.43;;
71125;SDS011;58785;55.566;38.058;2022-12-29T06:59:37;13.50;;;3.10;;
71125;SDS011;58785;55.566;38.058;2022-12-29T07:02:03;11.35;;;2.85;;
71125;SDS011;58785;55.566;38.058;2022-12-29T07:04:29;13.23;;;3.50;;
71125;SDS011;58785;55.566;38.058;2022-12-29T07:06:54;9.47;;;3.40;;
71125;SDS011;58785;55.566;38.058;2022-12-29T07:09:20;12.97;;;4.00;;
71125;SDS011;58785;55.566;38.058;2022-12-29T07:11:46;15.37;;;4.23;;
71125;SDS011;58785;55.566;38.058;2022-12-29T07:14:11;11.30;;;3.27;;
71125;SDS011;58785;55.566;38.058;2022-12-29T07:16:37;8.00;;;2.70;;
71125;SDS011;58785;55.566;38.058;2022-12-29T07:19:03;11.00;;;3.77;;
71125;SDS011;58785;55.566;38.058;2022-12-29T07:21:29;10.52;;;3.30;;
71125;SDS011;58785;55.566;38.058;2022-12-29T07:23:54;12.07;;;3.70;;
71125;SDS011;58785;55.566;38.058;2022-12-29T07:26:20;10.60;;;3.50;;
71125;SDS011;58785;55.566;38.058;2022-12-29T07:28:46;10.00;;;2.78;;
71125;SDS011;58785;55.566;38.058;2022-12-29T07:31:16;12.20;;;3.33;;
71125;SDS011;58785;55.566;38.058;2022-12-29T07:33:45;14.67;;;3.57;;
71125;SDS011;58785;55.566;38.058;2022-12-29T07:36:12;11.98;;;3.13;;
71125;SDS011;58785;55.566;38.058;2022-12-29T07:38:39;12.57;;;4.18;;
71125;SDS011;58785;55.566;38.058;2022-12-29T07:41:05;12.73;;;3.97;;
71125;SDS011;58785;55.566;38.058;2022-12-29T07:43:30;11.27;;;3.60;;
71125;SDS011;58785;55.566;38.058;2022-12-29T07:45:56;10.20;;;3.97;;
71125;SDS011;58785;55.566;38.058;2022-12-29T07:48:22;18.33;;;3.80;;
71125;SDS011;58785;55.566;38.058;2022-12-29T07:50:47;10.13;;;3.53;;
71125;SDS011;58785;55.566;38.058;2022-12-29T07:53:13;13.48;;;4.53;;
71125;SDS011;58785;55.566;38.058;2022-12-29T07:55:39;13.48;;;4.22;;
71125;SDS011;58785;55.566;38.058;2022-12-29T07:58:05;14.30;;;3.33;;
71125;SDS011;58785;55.566;38.058;2022-12-29T08:00:31;11.90;;;3.60;;
71125;SDS011;58785;55.566;38.058;2022-12-29T08:02:56;12.13;;;3.97;;
71125;SDS011;58785;55.566;38.058;2022-12-29T08:05:22;9.88;;;4.10;;
71125;SDS011;58785;55.566;38.058;2022-12-29T08:07:48;12.35;;;3.65;;
71125;SDS011;58785;55.566;38.058;2022-12-29T08:10:14;13.57;;;3.17;;
71125;SDS011;58785;55.566;38.058;2022-12-29T08:12:40;10.38;;;3.38;;
71125;SDS011;58785;55.566;38.058;2022-12-29T08:15:07;10.10;;;2.90;;
71125;SDS011;58785;55.566;38.058;2022-12-29T08:17:34;8.43;;;3.00;;
71125;SDS011;58785;55.566;38.058;2022-12-29T08:20:00;8.65;;;3.17;;
71125;SDS011;58785;55.566;38.058;2022-12-29T08:22:25;12.50;;;3.70;;
71125;SDS011;58785;55.566;38.058;2022-12-29T08:24:53;8.48;;;2.72;;
71125;SDS011;58785;55.566;38.058;2022-12-29T08:27:19;9.50;;;2.03;;
71125;SDS011;58785;55.566;38.058;2022-12-29T08:29:45;10.43;;;2.60;;
71125;SDS011;58785;55.566;38.058;2022-12-29T08:32:10;7.67;;;1.97;;
71125;SDS011;58785;55.566;38.058;2022-12-29T08:34:36;6.77;;;1.57;;
71125;SDS011;58785;55.566;38.058;2022-12-29T08:37:02;7.10;;;2.15;;
71125;SDS011;58785;55.566;38.058;2022-12-29T08:39:27;5.97;;;1.53;;
71125;SDS011;58785;55.566;38.058;2022-12-29T08:41:53;8.95;;;2.30;;
71125;SDS011;58785;55.566;38.058;2022-12-29T08:44:19;9.30;;;1.90;;
71125;SDS011;58785;55.566;38.058;2022-12-29T08:46:45;6.50;;;2.17;;
71125;SDS011;58785;55.566;38.058;2022-12-29T08:49:11;9.38;;;2.28;;
71125;SDS011;58785;55.566;38.058;2022-12-29T08:51:36;7.10;;;2.47;;
71125;SDS011;58785;55.566;38.058;2022-12-29T08:54:02;6.03;;;1.90;;
71125;SDS011;58785;55.566;38.058;2022-12-29T08:56:27;5.82;;;1.85;;
71125;SDS011;58785;55.566;38.058;2022-12-29T08:58:53;6.10;;;1.80;;
71125;SDS011;58785;55.566;38.058;2022-12-29T09:01:19;7.43;;;1.77;;
71125;SDS011;58785;55.566;38.058;2022-12-29T09:03:45;11.32;;;1.95;;
71125;SDS011;58785;55.566;38.058;2022-12-29T09:06:11;9.55;;;2.28;;
71125;SDS011;58785;55.566;38.058;2022-12-29T09:08:38;6.97;;;1.77;;
71125;SDS011;58785;55.566;38.058;2022-12-29T09:11:15;9.25;;;2.65;;
71125;SDS011;58785;55.566;38.058;2022-12-29T09:13:43;6.85;;;2.38;;
71125;SDS011;58785;55.566;38.058;2022-12-29T09:16:09;6.63;;;2.33;;
71125;SDS011;58785;55.566;38.058;2022-12-29T09:18:35;6.70;;;2.20;;
71125;SDS011;58785;55.566;38.058;2022-12-29T09:21:03;9.50;;;2.15;;
71125;SDS011;58785;55.566;38.058;2022-12-29T09:23:30;10.83;;;2.77;;
71125;SDS011;58785;55.566;38.058;2022-12-29T09:25:56;8.43;;;2.50;;
71125;SDS011;58785;55.566;38.058;2022-12-29T09:28:22;6.28;;;1.98;;
71125;SDS011;58785;55.566;38.058;2022-12-29T09:30:48;8.23;;;2.00;;
71125;SDS011;58785;55.566;38.058;2022-12-29T09:33:14;9.43;;;2.60;;
71125;SDS011;58785;55.566;38.058;2022-12-29T09:35:41;7.72;;;2.65;;
71125;SDS011;58785;55.566;38.058;2022-12-29T09:38:11;9.90;;;3.25;;
71125;SDS011;58785;55.566;38.058;2022-12-29T09:40:37;8.65;;;3.05;;
71125;SDS011;58785;55.566;38.058;2022-12-29T09:48:41;11.80;;;2.90;;
71125;SDS011;58785;55.566;38.058;2022-12-29T09:51:16;10.25;;;2.53;;
71125;SDS011;58785;55.566;38.058;2022-12-29T09:53:58;8.02;;;2.10;;
71125;SDS011;58785;55.566;38.058;2022-12-29T09:56:29;9.77;;;2.92;;
71125;SDS011;58785;55.566;38.058;2022-12-29T09:59:11;6.53;;;2.43;;
71125;SDS011;58785;55.566;38.058;2022-12-29T10:01:53;7.43;;;2.60;;
71125;SDS011;58785;55.566;38.058;2022-12-29T10:04:27;12.13;;;3.20;;
71125;SDS011;58785;55.566;38.058;2022-12-29T10:21:08;9.57;;;3.20;;
71125;SDS011;58785;55.566;38.058;2022-12-29T10:23:44;10.60;;;2.50;;
71125;SDS011;58785;55.566;38.058;2022-12-29T10:26:16;9.25;;;3.15;;
71125;SDS011;58785;55.566;38.058;2022-12-29T10:31:16;7.63;;;2.72;;
71125;SDS011;58785;55.566;38.058;2022-12-29T10:33:48;7.30;;;2.60;;
71125;SDS011;58785;55.566;38.058;2022-12-29T10:36:37;6.88;;;2.40;;
71125;SDS011;58785;55.566;38.058;2022-12-29T10:39:52;8.52;;;2.30;;
71125;SDS011;58785;55.566;38.058;2022-12-29T10:42:13;6.70;;;2.05;;
71125;SDS011;58785;55.566;38.058;2022-12-29T10:44:44;10.35;;;1.90;;
71125;SDS011;58785;55.566;38.058;2022-12-29T10:47:12;7.63;;;1.87;;
71125;SDS011;58785;55.566;38.058;2022-12-29T10:49:42;11.38;;;2.58;;
71125;SDS011;58785;55.566;38.058;2022-12-29T10:52:10;5.60;;;1.90;;
71125;SDS011;58785;55.566;38.058;2022-12-29T10:54:52;6.85;;;2.13;;
71125;SDS011;58785;55.566;38.058;2022-12-29T10:57:42;9.43;;;2.77;;
71125;SDS011;58785;55.566;38.058;2022-12-29T11:00:13;8.00;;;2.40;;
71125;SDS011;58785;55.566;38.058;2022-12-29T11:08:14;8.40;;;2.85;;
71125;SDS011;58785;55.566;38.058;2022-12-29T11:11:02;7.67;;;2.30;;
71125;SDS011;58785;55.566;38.058;2022-12-29T11:13:33;8.20;;;2.47;;
71125;SDS011;58785;55.566;38.058;2022-12-29T11:16:30;7.82;;;2.22;;
71125;SDS011;58785;55.566;38.058;2022-12-29T11:18:58;6.82;;;2.17;;
71125;SDS011;58785;55.566;38.058;2022-12-29T11:21:31;9.15;;;2.28;;
71125;SDS011;58785;55.566;38.058;2022-12-29T11:24:24;7.50;;;2.43;;
71125;SDS011;58785;55.566;38.058;2022-12-29T11:26:55;6.00;;;1.67;;
71125;SDS011;58785;55.566;38.058;2022-12-29T11:29:48;6.25;;;1.58;;
71125;SDS011;58785;55.566;38.058;2022-12-29T11:32:19;7.65;;;1.50;;
71125;SDS011;58785;55.566;38.058;2022-12-29T11:34:45;4.65;;;1.38;;
71125;SDS011;58785;55.566;38.058;2022-12-29T11:37:13;7.33;;;1.90;;
71125;SDS011;58785;55.566;38.058;2022-12-29T11:42:47;4.82;;;1.23;;
71125;SDS011;58785;55.566;38.058;2022-12-29T11:45:20;5.53;;;1.60;;
71125;SDS011;58785;55.566;38.058;2022-12-29T11:50:33;7.13;;;1.80;;
71125;SDS011;58785;55.566;38.058;2022-12-29T11:53:05;5.78;;;1.83;;
71125;SDS011;58785;55.566;38.058;2022-12-29T11:55:53;4.85;;;1.42;;
71125;SDS011;58785;55.566;38.058;2022-12-29T11:58:27;5.50;;;1.50;;
71125;SDS011;58785;55.566;38.058;2022-12-29T12:01:19;5.45;;;1.85;;
71125;SDS011;58785;55.566;38.058;2022-12-29T12:04:03;7.27;;;1.80;;
71125;SDS011;58785;55.566;38.058;2022-12-29T12:09:31;7.25;;;1.52;;
71125;SDS011;58785;55.566;38.058;2022-12-29T12:12:00;6.38;;;1.75;;
71125;SDS011;58785;55.566;38.058;2022-12-29T12:14:33;7.30;;;2.20;;
71125;SDS011;58785;55.566;38.058;2022-12-29T12:17:04;7.33;;;2.50;;
71125;SDS011;58785;55.566;38.058;2022-12-29T12:24:49;7.10;;;2.15;;
71125;SDS011;58785;55.566;38.058;2022-12-29T12:35:16;6.63;;;2.17;;
71125;SDS011;58785;55.566;38.058;2022-12-29T12:43:39;11.60;;;3.07;;
71125;SDS011;58785;55.566;38.058;2022-12-29T13:03:44;7.35;;;2.40;;
71125;SDS011;58785;55.566;38.058;2022-12-29T13:14:26;9.13;;;2.40;;
71125;SDS011;58785;55.566;38.058;2022-12-29T13:23:26;10.05;;;3.42;;
71125;SDS011;58785;55.566;38.058;2022-12-29T13:37:07;13.60;;;3.03;;
71125;SDS011;58785;55.566;38.058;2022-12-29T13:39:39;9.95;;;3.63;;
71125;SDS011;58785;55.566;38.058;2022-12-29T13:42:08;11.57;;;4.80;;
71125;SDS011;58785;55.566;38.058;2022-12-29T13:44:35;14.82;;;5.95;;
71125;SDS011;58785;55.566;38.058;2022-12-29T13:47:27;16.53;;;6.63;;
71125;SDS011;58785;55.566;38.058;2022-12-29T13:49:54;17.50;;;7.13;;
71125;SDS011;58785;55.566;38.058;2022-12-29T13:58:12;22.83;;;9.02;;
71125;SDS011;58785;55.566;38.058;2022-12-29T14:01:04;20.63;;;9.03;;
71125;SDS011;58785;55.566;38.058;2022-12-29T14:08:42;32.00;;;13.63;;
71125;SDS011;58785;55.566;38.058;2022-12-29T14:11:09;33.90;;;13.32;;
71125;SDS011;58785;55.566;38.058;2022-12-29T14:13:39;30.73;;;13.63;;
71125;SDS011;58785;55.566;38.058;2022-12-29T14:16:08;32.50;;;13.32;;
71125;SDS011;58785;55.566;38.058;2022-12-29T14:18:49;30.60;;;11.40;;
71125;SDS011;58785;55.566;38.058;2022-12-29T14:28:32;32.35;;;13.65;;
71125;SDS011;58785;55.566;38.058;2022-12-29T14:31:45;24.77;;;9.70;;
71125;SDS011;58785;55.566;38.058;2022-12-29T14:34:14;22.30;;;9.18;;
71125;SDS011;58785;55.566;38.058;2022-12-29T14:37:00;24.17;;;9.18;;
71125;SDS011;58785;55.566;38.058;2022-12-29T14:44:49;25.47;;;9.13;;
71125;SDS011;58785;55.566;38.058;2022-12-29T14:47:34;22.48;;;8.82;;
71125;SDS011;58785;55.566;38.058;2022-12-29T14:50:04;21.70;;;9.05;;
71125;SDS011;58785;55.566;38.058;2022-12-29T14:52:32;22.90;;;9.15;;
71125;SDS011;58785;55.566;38.058;2022-12-29T14:57:52;21.63;;;7.80;;
71125;SDS011;58785;55.566;38.058;2022-12-29T15:00:26;17.30;;;6.88;;
71125;SDS011;58785;55.566;38.058;2022-12-29T15:08:05;24.10;;;8.18;;
71125;SDS011;58785;55.566;38.058;2022-12-29T15:10:54;23.57;;;8.70;;
71125;SDS011;58785;55.566;38.058;2022-12-29T15:13:37;19.80;;;7.90;;
71125;SDS011;58785;55.566;38.058;2022-12-29T15:16:05;24.90;;;9.50;;
71125;SDS011;58785;55.566;38.058;2022-12-29T15:18:46;29.05;;;10.57;;
71125;SDS011;58785;55.566;38.058;2022-12-29T15:21:12;24.00;;;8.93;;
71125;SDS011;58785;55.566;38.058;2022-12-29T15:23:40;22.02;;;9.02;;
71125;SDS011;58785;55.566;38.058;2022-12-29T15:26:09;23.02;;;9.80;;
71125;SDS011;58785;55.566;38.058;2022-12-29T15:28:37;25.02;;;8.98;;
71125;SDS011;58785;55.566;38.058;2022-12-29T15:31:17;22.57;;;8.53;;
71125;SDS011;58785;55.566;38.058;2022-12-29T15:33:51;18.08;;;6.85;;
71125;SDS011;58785;55.566;38.058;2022-12-29T15:36:27;19.60;;;7.28;;
71125;SDS011;58785;55.566;38.058;2022-12-29T15:38:54;21.35;;;7.40;;
71125;SDS011;58785;55.566;38.058;2022-12-29T15:46:16;18.27;;;6.68;;
71125;SDS011;58785;55.566;38.058;2022-12-29T15:48:42;19.00;;;5.47;;
71125;SDS011;58785;55.566;38.058;2022-12-29T15:54:13;16.02;;;6.22;;
71125;SDS011;58785;55.566;38.058;2022-12-29T15:56:43;19.90;;;6.63;;
71125;SDS011;58785;55.566;38.058;2022-12-29T15:59:25;17.93;;;7.13;;
71125;SDS011;58785;55.566;38.058;2022-12-29T16:01:59;22.48;;;8.90;;
71125;SDS011;58785;55.566;38.058;2022-12-29T16:04:27;25.88;;;9.70;;
71125;SDS011;58785;55.566;38.058;2022-12-29T16:07:02;24.70;;;8.20;;
71125;SDS011;58785;55.566;38.058;2022-12-29T16:09:31;21.43;;;7.00;;
71125;SDS011;58785;55.566;38.058;2022-12-29T16:12:13;22.58;;;7.35;;
71125;SDS011;58785;55.566;38.058;2022-12-29T16:14:47;16.55;;;6.03;;
71125;SDS011;58785;55.566;38.058;2022-12-29T16:17:18;19.90;;;6.47;;
71125;SDS011;58785;55.566;38.058;2022-12-29T16:20:01;18.55;;;6.78;;
71125;SDS011;58785;55.566;38.058;2022-12-29T16:22:34;16.63;;;5.07;;
71125;SDS011;58785;55.566;38.058;2022-12-29T16:25:06;13.25;;;5.00;;
71125;SDS011;58785;55.566;38.058;2022-12-29T16:28:14;15.02;;;5.43;;
71125;SDS011;58785;55.566;38.058;2022-12-29T16:30:46;12.38;;;5.45;;
71125;SDS011;58785;55.566;38.058;2022-12-29T16:36:39;13.10;;;5.50;;
71125;SDS011;58785;55.566;38.058;2022-12-29T16:39:11;15.15;;;5.30;;
71125;SDS011;58785;55.566;38.058;2022-12-29T16:41:47;13.40;;;5.80;;
71125;SDS011;58785;55.566;38.058;2022-12-29T16:44:18;15.60;;;5.70;;
71125;SDS011;58785;55.566;38.058;2022-12-29T16:49:36;17.17;;;5.40;;
71125;SDS011;58785;55.566;38.058;2022-12-29T16:52:14;15.02;;;4.82;;
71125;SDS011;58785;55.566;38.058;2022-12-29T16:54:44;18.45;;;6.50;;
71125;SDS011;58785;55.566;38.058;2022-12-29T16:57:20;15.93;;;5.72;;
71125;SDS011;58785;55.566;38.058;2022-12-29T16:59:50;17.80;;;5.47;;
71125;SDS011;58785;55.566;38.058;2022-12-29T17:02:19;14.47;;;5.80;;
71125;SDS011;58785;55.566;38.058;2022-12-29T17:04:47;16.15;;;6.38;;
71125;SDS011;58785;55.566;38.058;2022-12-29T17:07:15;21.65;;;7.07;;
71125;SDS011;58785;55.566;38.058;2022-12-29T17:09:45;17.48;;;6.75;;
71125;SDS011;58785;55.566;38.058;2022-12-29T17:12:15;19.10;;;6.83;;
71125;SDS011;58785;55.566;38.058;2022-12-29T17:14:45;20.92;;;8.05;;
71125;SDS011;58785;55.566;38.058;2022-12-29T17:20:17;27.10;;;10.52;;
71125;SDS011;58785;55.566;38.058;2022-12-29T17:22:48;30.95;;;11.95;;
71125;SDS011;58785;55.566;38.058;2022-12-29T17:25:36;20.00;;;8.23;;
71125;SDS011;58785;55.566;38.058;2022-12-29T17:28:02;18.02;;;7.55;;
71125;SDS011;58785;55.566;38.058;2022-12-29T17:30:32;22.58;;;8.43;;
71125;SDS011;58785;55.566;38.058;2022-12-29T17:33:02;23.38;;;8.82;;
71125;SDS011;58785;55.566;38.058;2022-12-29T17:35:29;20.08;;;7.15;;
71125;SDS011;58785;55.566;38.058;2022-12-29T17:37:55;16.80;;;6.37;;
71125;SDS011;58785;55.566;38.058;2022-12-29T17:40:21;18.73;;;6.93;;
71125;SDS011;58785;55.566;38.058;2022-12-29T17:42:52;19.03;;;7.83;;
71125;SDS011;58785;55.566;38.058;2022-12-29T17:45:23;15.98;;;7.18;;
71125;SDS011;58785;55.566;38.058;2022-12-29T17:47:56;21.42;;;6.90;;
71125;SDS011;58785;55.566;38.058;2022-12-29T17:50:26;22.08;;;5.70;;
71125;SDS011;58785;55.566;38.058;2022-12-29T17:52:55;24.02;;;7.55;;
71125;SDS011;58785;55.566;38.058;2022-12-29T17:55:23;16.37;;;6.37;;
71125;SDS011;58785;55.566;38.058;2022-12-29T17:57:49;20.30;;;5.80;;
71125;SDS011;58785;55.566;38.058;2022-12-29T18:02:48;15.00;;;6.32;;
71125;SDS011;58785;55.566;38.058;2022-12-29T18:05:19;15.05;;;5.40;;